Home > Products > Valid Products > TAF

000
FTUS43 KIWX 230500
TAFFWA
TAF
KFWA 230523Z 2306/2406 34007KT P6SM SKC
     FM240200 06004KT P6SM BKN060=



000
FTUS43 KIWX 222300
TAFFWA
TAF
KFWA 222340Z 2300/2324 33014KT P6SM SCT050
     FM230300 33008KT P6SM SKC=



000
FTUS43 KIWX 221700
TAFFWA
TAF
KFWA 221720Z 2218/2318 32017G26KT P6SM FEW040
     FM222300 33012G18KT P6SM SKC
     FM230200 33006KT P6SM SKC=



000
FTUS43 KIWX 221600 AAA
TAFFWA
TAF AMD
KFWA 221604Z 2216/2312 33018G26KT P6SM FEW040
     FM230100 32008KT P6SM SKC=



000
FTUS43 KIWX 221100
TAFFWA
TAF
KFWA 221123Z 2212/2312 30012G20KT 2SM BR BKN008 OVC012
     FM221300 32017G24KT P6SM BKN015
     FM221400 33019G26KT P6SM SKC
     FM230200 32008KT P6SM SKC=



000
FTUS43 KIWX 220500
TAFFWA
TAF
KFWA 220524Z 2206/2306 24010KT P6SM BKN035
      TEMPO 2206/2210 5SM -SHRA BR BKN020
     FM221300 32019G26KT P6SM SKC
     FM230200 32008KT P6SM SKC=



000
FTUS43 KIWX 212300
TAFFWA
TAF
KFWA 212338Z 2200/2224 25010KT P6SM BKN080
     FM220400 24010KT 6SM -SHRA BKN050
      TEMPO 2204/2207 4SM -SHRA BKN035
     FM220800 29015KT P6SM BKN025
     FM221300 32018G25KT P6SM SKC=



000
FTUS43 KIWX 211700
TAFFWA
TAF
KFWA 211720Z 2118/2218 22013G20KT P6SM SCT080 BKN150
     FM220000 24013KT P6SM BKN080
      TEMPO 2200/2204 -SHRA
     FM220400 24010KT 6SM -SHRA BKN035
     FM220900 32012G22KT P6SM BKN025
     FM221300 31014G24KT P6SM SKC=



000
FTUS43 KIWX 211100
TAFFWA
TAF
KFWA 211120Z 2112/2212 21008KT P6SM BKN200
     FM212000 24013G19KT P6SM BKN060
     FM220300 24010KT 6SM -SHRA BKN025
     FM220900 32012KT P6SM SKC=



000
FTUS43 KIWX 210500
TAFFWA
TAF
KFWA 210522Z 2106/2206 VRB03KT P6SM SCT250
     FM211200 22008KT P6SM BKN200
     FM212000 24013G19KT P6SM BKN060
     FM220300 24010KT 6SM -SHRA BKN035=



000
FTUS43 KIWX 202300
TAFFWA
TAF
KFWA 202320Z 2100/2124 19005KT P6SM SCT250
     FM211200 22008KT P6SM BKN200
     FM212000 24013G19KT P6SM BKN060=



000
FTUS43 KIWX 201700
TAFFWA
TAF
KFWA 201720Z 2018/2118 20008KT P6SM BKN250
     FM211200 21010KT P6SM SCT050 BKN250=



000
FTUS43 KIWX 201200 RRA
TAFFWA
TAF
KFWA 201204Z 2012/2112 08008KT P6SM SCT250
     FM201500 19008KT P6SM SCT250=



    US Dept of Commerce
    National Oceanic and Atmospheric Administration
    National Weather Service
    1325 East West Highway
    Silver Spring, MD 20910
    Page Author: NWS Internet Services Team
Disclaimer
Information Quality
Credits
Glossary
Privacy Policy
Freedom of Information Act (FOIA)
About Us
Career Opportunities